sensor_id;sensor_type;location;lat;lon;timestamp;pressure;altitude;pressure_sealevel;temperature;humidity
70781;BME280;59514;48.810;2.134;2022-08-24T00:01:16;100383.88;;;21.68;74.77
70781;BME280;59514;48.810;2.134;2022-08-24T00:03:42;100380.94;;;21.65;74.42
70781;BME280;59514;48.810;2.134;2022-08-24T00:06:12;100383.66;;;21.65;74.70
70781;BME280;59514;48.810;2.134;2022-08-24T00:08:39;100378.25;;;21.60;74.92
70781;BME280;59514;48.810;2.134;2022-08-24T00:11:05;100385.59;;;21.64;74.95
70781;BME280;59514;48.810;2.134;2022-08-24T00:13:31;100380.22;;;21.59;74.72
70781;BME280;59514;48.810;2.134;2022-08-24T00:15:57;100370.06;;;21.60;75.25
70781;BME280;59514;48.810;2.134;2022-08-24T00:18:23;100377.16;;;21.61;75.38
70781;BME280;59514;48.810;2.134;2022-08-24T00:20:49;100372.00;;;21.59;75.23
70781;BME280;59514;48.810;2.134;2022-08-24T00:23:14;100373.63;;;21.60;75.10
70781;BME280;59514;48.810;2.134;2022-08-24T00:25:40;100374.50;;;21.56;75.29
70781;BME280;59514;48.810;2.134;2022-08-24T00:28:06;100374.50;;;21.56;75.41
70781;BME280;59514;48.810;2.134;2022-08-24T00:30:32;100374.50;;;21.56;75.45
70781;BME280;59514;48.810;2.134;2022-08-24T00:32:57;100368.53;;;21.54;75.34
70781;BME280;59514;48.810;2.134;2022-08-24T00:35:23;100379.97;;;21.56;75.43
70781;BME280;59514;48.810;2.134;2022-08-24T00:37:49;100378.34;;;21.55;75.33
70781;BME280;59514;48.810;2.134;2022-08-24T00:40:39;100379.19;;;21.55;75.08
70781;BME280;59514;48.810;2.134;2022-08-24T00:43:07;100384.91;;;21.54;75.52
70781;BME280;59514;48.810;2.134;2022-08-24T00:45:45;100379.44;;;21.54;74.93
70781;BME280;59514;48.810;2.134;2022-08-24T00:48:17;100372.91;;;21.55;75.10
70781;BME280;59514;48.810;2.134;2022-08-24T00:50:57;100376.66;;;21.59;75.36
70781;BME280;59514;48.810;2.134;2022-08-24T00:55:56;100377.53;;;21.54;74.91
70781;BME280;59514;48.810;2.134;2022-08-24T00:58:33;100373.19;;;21.53;75.22
70781;BME280;59514;48.810;2.134;2022-08-24T01:01:02;100375.94;;;21.53;75.35
70781;BME280;59514;48.810;2.134;2022-08-24T01:03:30;100376.19;;;21.52;75.04
70781;BME280;59514;48.810;2.134;2022-08-24T01:05:57;100370.22;;;21.50;74.98
70781;BME280;59514;48.810;2.134;2022-08-24T01:08:23;100373.25;;;21.48;75.15
70781;BME280;59514;48.810;2.134;2022-08-24T01:10:55;100382.56;;;21.47;75.56
70781;BME280;59514;48.810;2.134;2022-08-24T01:13:23;100372.75;;;21.46;75.04
70781;BME280;59514;48.810;2.134;2022-08-24T01:15:52;100372.22;;;21.44;75.27
70781;BME280;59514;48.810;2.134;2022-08-24T01:18:20;100374.44;;;21.42;75.55
70781;BME280;59514;48.810;2.134;2022-08-24T01:21:22;100370.09;;;21.41;75.55
70781;BME280;59514;48.810;2.134;2022-08-24T01:23:57;100368.75;;;21.38;76.11
70781;BME280;59514;48.810;2.134;2022-08-24T01:26:36;100367.44;;;21.36;75.79
70781;BME280;59514;48.810;2.134;2022-08-24T01:29:07;100370.16;;;21.36;75.60
70781;BME280;59514;48.810;2.134;2022-08-24T01:31:33;100370.78;;;21.33;75.78
70781;BME280;59514;48.810;2.134;2022-08-24T01:33:59;100380.56;;;21.34;75.74
70781;BME280;59514;48.810;2.134;2022-08-24T01:36:39;100380.88;;;21.32;75.79
70781;BME280;59514;48.810;2.134;2022-08-24T01:39:14;100374.59;;;21.32;76.32
70781;BME280;59514;48.810;2.134;2022-08-24T01:41:41;100375.50;;;21.27;76.08
70781;BME280;59514;48.810;2.134;2022-08-24T01:44:06;100374.16;;;21.25;76.22
70781;BME280;59514;48.810;2.134;2022-08-24T01:46:32;100368.41;;;21.26;76.12
70781;BME280;59514;48.810;2.134;2022-08-24T01:48:58;100380.44;;;21.25;76.19
70781;BME280;59514;48.810;2.134;2022-08-24T01:51:28;100378.50;;;21.26;76.15
70781;BME280;59514;48.810;2.134;2022-08-24T01:53:53;100377.19;;;21.23;76.67
70781;BME280;59514;48.810;2.134;2022-08-24T01:56:19;100372.31;;;21.20;76.76
70781;BME280;59514;48.810;2.134;2022-08-24T01:58:47;100384.34;;;21.19;76.96
70781;BME280;59514;48.810;2.134;2022-08-24T02:01:15;100376.69;;;21.21;76.73
70781;BME280;59514;48.810;2.134;2022-08-24T02:03:42;100377.25;;;21.18;76.90
70781;BME280;59514;48.810;2.134;2022-08-24T02:06:08;100368.25;;;21.18;76.57
70781;BME280;59514;48.810;2.134;2022-08-24T02:08:33;100363.03;;;21.21;76.79
70781;BME280;59514;48.810;2.134;2022-08-24T02:11:10;100369.06;;;21.18;76.69
70781;BME280;59514;48.810;2.134;2022-08-24T02:13:39;100368.25;;;21.18;77.02
70781;BME280;59514;48.810;2.134;2022-08-24T02:16:06;100366.31;;;21.18;76.96
70781;BME280;59514;48.810;2.134;2022-08-24T02:18:33;100363.06;;;21.16;77.15
70781;BME280;59514;48.810;2.134;2022-08-24T02:20:59;100370.69;;;21.19;77.00
70781;BME280;59514;48.810;2.134;2022-08-24T02:23:25;100365.00;;;21.16;77.18
70781;BME280;59514;48.810;2.134;2022-08-24T02:25:51;100368.84;;;21.15;77.19
70781;BME280;59514;48.810;2.134;2022-08-24T02:28:16;100369.16;;;21.13;77.21
70781;BME280;59514;48.810;2.134;2022-08-24T02:30:43;100370.22;;;21.12;77.67
70781;BME280;59514;48.810;2.134;2022-08-24T02:33:08;100374.09;;;21.11;77.43
70781;BME280;59514;48.810;2.134;2022-08-24T02:35:33;100365.38;;;21.09;77.40
70781;BME280;59514;48.810;2.134;2022-08-24T02:37:59;100367.59;;;21.07;77.21
70781;BME280;59514;48.810;2.134;2022-08-24T02:40:25;100367.34;;;21.04;77.76
70781;BME280;59514;48.810;2.134;2022-08-24T02:42:50;100369.59;;;21.02;77.66
70781;BME280;59514;48.810;2.134;2022-08-24T02:45:15;100370.94;;;20.99;77.88
70781;BME280;59514;48.810;2.134;2022-08-24T02:47:41;100372.03;;;20.98;77.92
70781;BME280;59514;48.810;2.134;2022-08-24T02:50:09;100374.75;;;20.98;78.03
70781;BME280;59514;48.810;2.134;2022-08-24T02:52:38;100380.22;;;20.98;77.98
70781;BME280;59514;48.810;2.134;2022-08-24T02:55:06;100378.59;;;20.97;78.02
70781;BME280;59514;48.810;2.134;2022-08-24T02:57:32;100380.22;;;20.98;78.04
70781;BME280;59514;48.810;2.134;2022-08-24T02:59:57;100374.53;;;20.95;78.04
70781;BME280;59514;48.810;2.134;2022-08-24T03:02:23;100373.19;;;20.92;78.25
70781;BME280;59514;48.810;2.134;2022-08-24T03:04:49;100373.19;;;20.92;78.32
70781;BME280;59514;48.810;2.134;2022-08-24T03:07:14;100364.44;;;20.95;77.76
70781;BME280;59514;48.810;2.134;2022-08-24T03:09:39;100368.34;;;20.89;78.30
70781;BME280;59514;48.810;2.134;2022-08-24T03:12:05;100368.38;;;20.84;78.47
70781;BME280;59514;48.810;2.134;2022-08-24T03:14:30;100372.75;;;20.85;78.74
70781;BME280;59514;48.810;2.134;2022-08-24T03:16:55;100374.31;;;20.91;78.33
70781;BME280;59514;48.810;2.134;2022-08-24T03:19:21;100369.22;;;20.85;78.44
70781;BME280;59514;48.810;2.134;2022-08-24T03:21:47;100368.38;;;20.84;78.70
70781;BME280;59514;48.810;2.134;2022-08-24T03:24:12;100370.59;;;20.82;78.62
70781;BME280;59514;48.810;2.134;2022-08-24T03:26:38;100363.84;;;20.80;78.84
70781;BME280;59514;48.810;2.134;2022-08-24T03:29:04;100367.94;;;20.77;79.04
70781;BME280;59514;48.810;2.134;2022-08-24T03:31:29;100359.75;;;20.77;79.28
70781;BME280;59514;48.810;2.134;2022-08-24T03:33:55;100361.16;;;20.75;79.09
70781;BME280;59514;48.810;2.134;2022-08-24T03:36:20;100356.81;;;20.74;79.59
70781;BME280;59514;48.810;2.134;2022-08-24T03:38:45;100361.97;;;20.75;79.34
70781;BME280;59514;48.810;2.134;2022-08-24T03:41:11;100365.00;;;20.74;79.15
70781;BME280;59514;48.810;2.134;2022-08-24T03:43:37;100358.50;;;20.70;79.28
70781;BME280;59514;48.810;2.134;2022-08-24T03:46:09;100362.00;;;20.70;79.21
70781;BME280;59514;48.810;2.134;2022-08-24T03:48:37;100359.59;;;20.69;79.79
70781;BME280;59514;48.810;2.134;2022-08-24T03:51:04;100357.09;;;20.72;79.26
70781;BME280;59514;48.810;2.134;2022-08-24T03:53:29;100359.59;;;20.69;79.40
70781;BME280;59514;48.810;2.134;2022-08-24T03:55:55;100354.72;;;20.66;79.58
70781;BME280;59514;48.810;2.134;2022-08-24T03:58:20;100355.88;;;20.59;79.78
70781;BME280;59514;48.810;2.134;2022-08-24T04:00:45;100351.25;;;20.60;79.69
70781;BME280;59514;48.810;2.134;2022-08-24T04:03:12;100354.47;;;20.62;79.83
70781;BME280;59514;48.810;2.134;2022-08-24T04:05:38;100354.13;;;20.69;79.57
70781;BME280;59514;48.810;2.134;2022-08-24T04:08:05;100342.69;;;20.67;79.68
70781;BME280;59514;48.810;2.134;2022-08-24T04:10:31;100356.13;;;20.63;79.56
70781;BME280;59514;48.810;2.134;2022-08-24T04:12:57;100352.34;;;20.59;79.69
70781;BME280;59514;48.810;2.134;2022-08-24T04:15:24;100354.31;;;20.53;80.01
70781;BME280;59514;48.810;2.134;2022-08-24T04:17:49;100358.44;;;20.51;80.24
70781;BME280;59514;48.810;2.134;2022-08-24T04:20:15;100354.31;;;20.53;80.18
70781;BME280;59514;48.810;2.134;2022-08-24T04:22:40;100349.16;;;20.52;80.23
70781;BME280;59514;48.810;2.134;2022-08-24T04:25:06;100349.72;;;20.49;80.41
70781;BME280;59514;48.810;2.134;2022-08-24T04:27:33;100357.69;;;20.45;80.57
70781;BME280;59514;48.810;2.134;2022-08-24T04:29:58;100354.97;;;20.45;80.50
70781;BME280;59514;48.810;2.134;2022-08-24T04:32:24;100354.22;;;20.40;80.48
70781;BME280;59514;48.810;2.134;2022-08-24T04:34:49;100348.81;;;20.35;81.07
70781;BME280;59514;48.810;2.134;2022-08-24T04:37:15;100347.75;;;20.31;81.03
70781;BME280;59514;48.810;2.134;2022-08-24T04:39:42;100347.22;;;20.29;81.13
70781;BME280;59514;48.810;2.134;2022-08-24T04:42:09;100347.75;;;20.31;81.50
70781;BME280;59514;48.810;2.134;2022-08-24T04:44:34;100346.59;;;20.37;80.83
70781;BME280;59514;48.810;2.134;2022-08-24T04:47:00;100349.91;;;20.34;81.29
70781;BME280;59514;48.810;2.134;2022-08-24T04:49:25;100348.34;;;20.28;81.25
70781;BME280;59514;48.810;2.134;2022-08-24T04:51:51;100355.75;;;20.22;81.69
70781;BME280;59514;48.810;2.134;2022-08-24T04:54:17;100354.34;;;20.25;81.70
70781;BME280;59514;48.810;2.134;2022-08-24T04:56:42;100358.44;;;20.27;81.29
70781;BME280;59514;48.810;2.134;2022-08-24T04:59:07;100343.97;;;20.27;81.25
70781;BME280;59514;48.810;2.134;2022-08-24T05:01:33;100345.13;;;20.21;81.42
70781;BME280;59514;48.810;2.134;2022-08-24T05:03:59;100347.59;;;20.17;81.57
70781;BME280;59514;48.810;2.134;2022-08-24T05:06:27;100351.69;;;20.15;81.80
70781;BME280;59514;48.810;2.134;2022-08-24T05:08:53;100358.28;;;20.14;81.96
70781;BME280;59514;48.810;2.134;2022-08-24T05:11:20;100354.44;;;20.20;81.70
70781;BME280;59514;48.810;2.134;2022-08-24T05:13:46;100364.22;;;20.21;81.48
70781;BME280;59514;48.810;2.134;2022-08-24T05:16:15;100359.31;;;20.18;81.89
70781;BME280;59514;48.810;2.134;2022-08-24T05:18:42;100362.84;;;20.18;81.95
70781;BME280;59514;48.810;2.134;2022-08-24T05:21:09;100361.53;;;20.16;81.97
70781;BME280;59514;48.810;2.134;2022-08-24T05:23:35;100365.63;;;20.13;82.03
70781;BME280;59514;48.810;2.134;2022-08-24T05:26:06;100369.19;;;20.14;81.98
70781;BME280;59514;48.810;2.134;2022-08-24T05:28:31;100372.69;;;20.19;82.02
70781;BME280;59514;48.810;2.134;2022-08-24T05:31:27;100368.06;;;20.20;82.04
70781;BME280;59514;48.810;2.134;2022-08-24T05:33:53;100361.38;;;20.31;81.64
70781;BME280;59514;48.810;2.134;2022-08-24T05:36:27;100357.31;;;20.28;81.54
70781;BME280;59514;48.810;2.134;2022-08-24T05:38:54;100376.19;;;20.25;81.95
70781;BME280;59514;48.810;2.134;2022-08-24T05:41:21;100370.72;;;20.25;81.97
70781;BME280;59514;48.810;2.134;2022-08-24T05:43:47;100365.56;;;20.23;82.33
70781;BME280;59514;48.810;2.134;2022-08-24T05:46:13;100372.41;;;20.21;82.50
70781;BME280;59514;48.810;2.134;2022-08-24T05:48:38;100371.84;;;20.24;82.28
70781;BME280;59514;48.810;2.134;2022-08-24T05:51:05;100372.91;;;20.23;82.55
70781;BME280;59514;48.810;2.134;2022-08-24T05:53:32;100365.84;;;20.22;82.55
70781;BME280;59514;48.810;2.134;2022-08-24T05:55:58;100363.66;;;20.24;82.59
70781;BME280;59514;48.810;2.134;2022-08-24T05:58:26;100360.63;;;20.25;82.45
70781;BME280;59514;48.810;2.134;2022-08-24T06:00:51;100372.59;;;20.29;82.07
70781;BME280;59514;48.810;2.134;2022-08-24T06:03:17;100364.88;;;20.36;82.22
70781;BME280;59514;48.810;2.134;2022-08-24T06:05:43;100371.66;;;20.39;82.14
70781;BME280;59514;48.810;2.134;2022-08-24T06:08:08;100374.91;;;20.41;81.90
70781;BME280;59514;48.810;2.134;2022-08-24T06:10:45;100369.47;;;20.41;82.27
70781;BME280;59514;48.810;2.134;2022-08-24T06:13:15;100382.56;;;20.39;81.96
70781;BME280;59514;48.810;2.134;2022-08-24T06:15:41;100374.41;;;20.39;82.08
70781;BME280;59514;48.810;2.134;2022-08-24T06:18:08;100374.06;;;20.45;81.90
70781;BME280;59514;48.810;2.134;2022-08-24T06:20:38;100371.78;;;20.52;81.40
70781;BME280;59514;48.810;2.134;2022-08-24T06:23:03;100372.81;;;20.56;81.50
70781;BME280;59514;48.810;2.134;2022-08-24T06:25:29;100381.84;;;20.57;81.83
70781;BME280;59514;48.810;2.134;2022-08-24T06:28:12;100377.94;;;20.63;81.43
70781;BME280;59514;48.810;2.134;2022-08-24T06:30:38;100376.81;;;20.64;81.60
70781;BME280;59514;48.810;2.134;2022-08-24T06:33:04;100377.34;;;20.66;81.37
70781;BME280;59514;48.810;2.134;2022-08-24T06:35:29;100384.97;;;20.69;81.24
70781;BME280;59514;48.810;2.134;2022-08-24T06:37:55;100381.94;;;20.71;81.30
70781;BME280;59514;48.810;2.134;2022-08-24T06:40:20;100386.53;;;20.75;80.62
70781;BME280;59514;48.810;2.134;2022-08-24T06:42:46;100384.25;;;20.82;80.47
70781;BME280;59514;48.810;2.134;2022-08-24T06:45:12;100378.22;;;20.85;80.31
70781;BME280;59514;48.810;2.134;2022-08-24T06:47:37;100386.06;;;20.92;80.37
70781;BME280;59514;48.810;2.134;2022-08-24T06:50:03;100380.00;;;20.95;79.99
70781;BME280;59514;48.810;2.134;2022-08-24T06:52:31;100378.00;;;21.00;80.32
70781;BME280;59514;48.810;2.134;2022-08-24T06:54:57;100381.81;;;21.04;80.20
70781;BME280;59514;48.810;2.134;2022-08-24T06:57:22;100370.03;;;21.09;79.56
70781;BME280;59514;48.810;2.134;2022-08-24T06:59:48;100383.84;;;21.17;79.71
70781;BME280;59514;48.810;2.134;2022-08-24T07:02:13;100378.81;;;21.24;79.11
70781;BME280;59514;48.810;2.134;2022-08-24T07:04:40;100383.09;;;21.30;78.60
70781;BME280;59514;48.810;2.134;2022-08-24T07:07:07;100377.25;;;21.37;78.33
70781;BME280;59514;48.810;2.134;2022-08-24T07:09:32;100379.63;;;21.43;78.58
70781;BME280;59514;48.810;2.134;2022-08-24T07:11:58;100379.03;;;21.47;78.36
70781;BME280;59514;48.810;2.134;2022-08-24T07:14:24;100377.63;;;21.49;77.84
70781;BME280;59514;48.810;2.134;2022-08-24T07:16:50;100378.16;;;21.51;78.44
70781;BME280;59514;48.810;2.134;2022-08-24T07:19:15;100385.44;;;21.56;77.62
70781;BME280;59514;48.810;2.134;2022-08-24T07:21:40;100377.47;;;21.59;78.20
70781;BME280;59514;48.810;2.134;2022-08-24T07:24:06;100381.25;;;21.63;77.15
70781;BME280;59514;48.810;2.134;2022-08-24T07:26:32;100382.78;;;21.69;76.97
70781;BME280;59514;48.810;2.134;2022-08-24T07:29:04;100384.53;;;21.79;77.29
70781;BME280;59514;48.810;2.134;2022-08-24T07:31:32;100391.06;;;21.83;75.90
70781;BME280;59514;48.810;2.134;2022-08-24T07:33:58;100391.28;;;21.86;75.98
70781;BME280;59514;48.810;2.134;2022-08-24T07:36:23;100385.13;;;21.94;75.81
70781;BME280;59514;48.810;2.134;2022-08-24T07:38:50;100390.50;;;21.99;75.47
70781;BME280;59514;48.810;2.134;2022-08-24T07:41:16;100390.72;;;22.03;75.43
70781;BME280;59514;48.810;2.134;2022-08-24T07:43:42;100390.94;;;22.06;75.40
70781;BME280;59514;48.810;2.134;2022-08-24T07:46:07;100388.91;;;22.12;75.23
70781;BME280;59514;48.810;2.134;2022-08-24T07:48:33;100392.66;;;22.16;75.05
70781;BME280;59514;48.810;2.134;2022-08-24T07:51:09;100398.66;;;22.18;74.64
70781;BME280;59514;48.810;2.134;2022-08-24T07:53:35;100396.34;;;22.25;74.12
70781;BME280;59514;48.810;2.134;2022-08-24T07:56:00;100402.53;;;22.31;73.93
70781;BME280;59514;48.810;2.134;2022-08-24T07:58:25;100401.31;;;22.37;73.49
70781;BME280;59514;48.810;2.134;2022-08-24T08:00:51;100405.38;;;22.39;73.30
70781;BME280;59514;48.810;2.134;2022-08-24T08:03:17;100406.63;;;22.47;73.12
70781;BME280;59514;48.810;2.134;2022-08-24T08:05:43;100407.91;;;22.49;72.84
70781;BME280;59514;48.810;2.134;2022-08-24T08:08:08;100418.47;;;22.56;72.16
70781;BME280;59514;48.810;2.134;2022-08-24T08:10:34;100420.84;;;22.62;72.02
70781;BME280;59514;48.810;2.134;2022-08-24T08:13:01;100415.25;;;22.67;70.35
70781;BME280;59514;48.810;2.134;2022-08-24T08:15:27;100423.06;;;22.74;69.60
70781;BME280;59514;48.810;2.134;2022-08-24T08:17:53;100413.34;;;22.81;66.16
70781;BME280;59514;48.810;2.134;2022-08-24T08:20:18;100419.63;;;22.95;65.96
70781;BME280;59514;48.810;2.134;2022-08-24T08:22:43;100419.41;;;23.05;66.07
70781;BME280;59514;48.810;2.134;2022-08-24T08:25:27;100426.72;;;23.10;65.13
70781;BME280;59514;48.810;2.134;2022-08-24T08:27:53;100425.31;;;23.13;65.42
70781;BME280;59514;48.810;2.134;2022-08-24T08:30:19;100416.34;;;23.21;63.83
70781;BME280;59514;48.810;2.134;2022-08-24T08:32:44;100419.16;;;23.29;63.00
70781;BME280;59514;48.810;2.134;2022-08-24T08:35:10;100419.47;;;23.28;63.77
70781;BME280;59514;48.810;2.134;2022-08-24T08:37:37;100421.03;;;23.34;63.51
70781;BME280;59514;48.810;2.134;2022-08-24T08:40:05;100419.16;;;23.43;61.89
70781;BME280;59514;48.810;2.134;2022-08-24T08:42:58;100419.94;;;23.57;61.77
70781;BME280;59514;48.810;2.134;2022-08-24T08:45:58;100415.69;;;23.51;62.33
70781;BME280;59514;48.810;2.134;2022-08-24T09:07:47;100410.81;;;23.83;59.99
70781;BME280;59514;48.810;2.134;2022-08-24T09:13:13;100407.78;;;24.07;59.56
70781;BME280;59514;48.810;2.134;2022-08-24T09:21:26;100408.75;;;24.33;59.56
70781;BME280;59514;48.810;2.134;2022-08-24T09:24:39;100410.94;;;24.23;59.96
70781;BME280;59514;48.810;2.134;2022-08-24T09:33:05;100406.34;;;24.40;57.18
70781;BME280;59514;48.810;2.134;2022-08-24T09:49:58;100418.75;;;24.68;55.99
70781;BME280;59514;48.810;2.134;2022-08-24T10:01:30;100411.97;;;25.05;54.09
70781;BME280;59514;48.810;2.134;2022-08-24T10:06:25;100411.00;;;25.18;52.54
70781;BME280;59514;48.810;2.134;2022-08-24T10:11:33;100405.06;;;25.25;52.35
70781;BME280;59514;48.810;2.134;2022-08-24T10:17:04;100402.00;;;25.35;51.39
70781;BME280;59514;48.810;2.134;2022-08-24T10:20:04;100403.25;;;25.37;52.16
70781;BME280;59514;48.810;2.134;2022-08-24T10:31:08;100382.78;;;25.60;52.90
70781;BME280;59514;48.810;2.134;2022-08-24T10:33:55;100386.81;;;25.72;52.20
70781;BME280;59514;48.810;2.134;2022-08-24T10:37:01;100376.41;;;26.58;50.07
70781;BME280;59514;48.810;2.134;2022-08-24T10:47:35;100384.06;;;27.60;46.54
70781;BME280;59514;48.810;2.134;2022-08-24T10:53:13;100386.72;;;27.36;46.43
70781;BME280;59514;48.810;2.134;2022-08-24T10:55:43;100377.28;;;27.37;46.96
70781;BME280;59514;48.810;2.134;2022-08-24T10:58:33;100382.22;;;27.23;47.58
70781;BME280;59514;48.810;2.134;2022-08-24T11:04:11;100364.63;;;27.57;46.81
70781;BME280;59514;48.810;2.134;2022-08-24T11:12:22;100363.09;;;28.00;45.41
70781;BME280;59514;48.810;2.134;2022-08-24T11:14:48;100358.81;;;28.24;44.61
70781;BME280;59514;48.810;2.134;2022-08-24T11:17:16;100365.72;;;28.30;43.88
70781;BME280;59514;48.810;2.134;2022-08-24T11:19:43;100356.50;;;28.38;43.84
70781;BME280;59514;48.810;2.134;2022-08-24T11:22:35;100352.69;;;28.42;44.25
70781;BME280;59514;48.810;2.134;2022-08-24T11:25:25;100353.06;;;28.53;43.82
70781;BME280;59514;48.810;2.134;2022-08-24T11:27:58;100352.41;;;28.56;43.26
70781;BME280;59514;48.810;2.134;2022-08-24T11:30:28;100350.50;;;28.48;43.19
70781;BME280;59514;48.810;2.134;2022-08-24T11:32:57;100346.13;;;28.23;43.10
70781;BME280;59514;48.810;2.134;2022-08-24T11:38:19;100340.53;;;27.98;43.81
70781;BME280;59514;48.810;2.134;2022-08-24T11:41:20;100336.91;;;28.19;42.85
70781;BME280;59514;48.810;2.134;2022-08-24T11:46:36;100323.34;;;28.38;42.95
70781;BME280;59514;48.810;2.134;2022-08-24T11:49:14;100323.81;;;28.28;42.49
70781;BME280;59514;48.810;2.134;2022-08-24T11:51:53;100324.72;;;28.07;43.36
70781;BME280;59514;48.810;2.134;2022-08-24T11:57:08;100317.63;;;28.55;43.17
70781;BME280;59514;48.810;2.134;2022-08-24T12:02:07;100318.34;;;29.83;40.07
70781;BME280;59514;48.810;2.134;2022-08-24T12:10:16;100317.66;;;30.80;38.87
70781;BME280;59514;48.810;2.134;2022-08-24T12:12:59;100319.28;;;31.15;38.25
70781;BME280;59514;48.810;2.134;2022-08-24T12:18:25;100307.22;;;32.26;35.49
70781;BME280;59514;48.810;2.134;2022-08-24T12:20:55;100314.69;;;32.22;34.90
70781;BME280;59514;48.810;2.134;2022-08-24T12:26:02;100306.03;;;33.61;32.88
70781;BME280;59514;48.810;2.134;2022-08-24T12:28:37;100307.31;;;34.04;32.16
70781;BME280;59514;48.810;2.134;2022-08-24T12:31:16;100305.31;;;34.05;32.53
70781;BME280;59514;48.810;2.134;2022-08-24T12:33:47;100304.72;;;34.25;31.80
70781;BME280;59514;48.810;2.134;2022-08-24T12:36:30;100309.00;;;34.16;31.22
70781;BME280;59514;48.810;2.134;2022-08-24T12:39:08;100306.97;;;33.72;33.59
70781;BME280;59514;48.810;2.134;2022-08-24T12:41:48;100302.69;;;33.82;31.33
70781;BME280;59514;48.810;2.134;2022-08-24T12:44:15;100298.84;;;32.97;32.89
70781;BME280;59514;48.810;2.134;2022-08-24T12:46:42;100299.38;;;32.80;32.76
70781;BME280;59514;48.810;2.134;2022-08-24T12:52:02;100299.97;;;33.89;31.66
70781;BME280;59514;48.810;2.134;2022-08-24T12:57:11;100286.72;;;35.31;29.67
70781;BME280;59514;48.810;2.134;2022-08-24T12:59:46;100285.66;;;35.78;27.92
70781;BME280;59514;48.810;2.134;2022-08-24T13:09:46;100276.91;;;35.90;26.86
70781;BME280;59514;48.810;2.134;2022-08-24T13:15:19;100269.34;;;35.94;27.19
70781;BME280;59514;48.810;2.134;2022-08-24T13:17:46;100270.94;;;34.92;28.49
70781;BME280;59514;48.810;2.134;2022-08-24T13:31:04;100260.19;;;33.52;31.77
70781;BME280;59514;48.810;2.134;2022-08-24T13:39:19;100240.25;;;33.50;31.07
70781;BME280;59514;48.810;2.134;2022-08-24T13:53:41;100236.78;;;33.60;31.68
70781;BME280;59514;48.810;2.134;2022-08-24T13:59:10;100222.88;;;33.63;31.55
70781;BME280;59514;48.810;2.134;2022-08-24T14:04:37;100217.44;;;33.74;31.25
70781;BME280;59514;48.810;2.134;2022-08-24T14:07:19;100213.03;;;33.73;31.32
70781;BME280;59514;48.810;2.134;2022-08-24T14:17:40;100207.56;;;33.83;31.43
70781;BME280;59514;48.810;2.134;2022-08-24T14:20:46;100208.09;;;33.56;31.02
70781;BME280;59514;48.810;2.134;2022-08-24T14:23:28;100203.56;;;33.08;30.24
70781;BME280;59514;48.810;2.134;2022-08-24T14:27:02;100202.31;;;32.75;31.18
70781;BME280;59514;48.810;2.134;2022-08-24T14:36:56;100193.84;;;32.94;33.11
70781;BME280;59514;48.810;2.134;2022-08-24T14:39:44;100193.78;;;33.21;30.68
70781;BME280;59514;48.810;2.134;2022-08-24T14:42:16;100190.66;;;33.26;30.53
70781;BME280;59514;48.810;2.134;2022-08-24T14:44:59;100191.16;;;33.35;29.52
70781;BME280;59514;48.810;2.134;2022-08-24T14:47:47;100194.44;;;33.47;29.74
70781;BME280;59514;48.810;2.134;2022-08-24T14:50:19;100201.38;;;33.27;29.03
70781;BME280;59514;48.810;2.134;2022-08-24T15:06:29;100190.03;;;32.76;29.32
70781;BME280;59514;48.810;2.134;2022-08-24T15:09:12;100191.78;;;32.91;28.29
70781;BME280;59514;48.810;2.134;2022-08-24T15:11:41;100180.47;;;33.07;28.31
70781;BME280;59514;48.810;2.134;2022-08-24T15:14:11;100184.16;;;33.15;28.67
70781;BME280;59514;48.810;2.134;2022-08-24T15:16:51;100191.75;;;33.18;28.34
70781;BME280;59514;48.810;2.134;2022-08-24T15:19:42;100192.16;;;33.20;28.30
70781;BME280;59514;48.810;2.134;2022-08-24T15:22:24;100183.13;;;33.30;28.33
70781;BME280;59514;48.810;2.134;2022-08-24T15:25:01;100180.72;;;32.95;29.10
70781;BME280;59514;48.810;2.134;2022-08-24T15:27:53;100181.00;;;32.53;30.29
70781;BME280;59514;48.810;2.134;2022-08-24T15:30:31;100178.28;;;32.08;30.90
70781;BME280;59514;48.810;2.134;2022-08-24T15:33:18;100169.78;;;31.75;30.27
70781;BME280;59514;48.810;2.134;2022-08-24T15:35:50;100176.94;;;31.53;30.40
70781;BME280;59514;48.810;2.134;2022-08-24T15:38:29;100164.13;;;31.68;30.77
70781;BME280;59514;48.810;2.134;2022-08-24T15:46:34;100161.25;;;32.09;29.83
70781;BME280;59514;48.810;2.134;2022-08-24T15:49:13;100158.13;;;31.66;31.53
70781;BME280;59514;48.810;2.134;2022-08-24T15:51:51;100162.69;;;31.55;32.28
70781;BME280;59514;48.810;2.134;2022-08-24T15:57:00;100165.38;;;31.09;32.32
70781;BME280;59514;48.810;2.134;2022-08-24T15:59:44;100159.97;;;31.16;32.42
70781;BME280;59514;48.810;2.134;2022-08-24T16:10:46;100144.41;;;31.99;30.79
70781;BME280;59514;48.810;2.134;2022-08-24T16:18:16;100143.56;;;32.21;30.28
70781;BME280;59514;48.810;2.134;2022-08-24T16:20:43;100132.50;;;32.24;31.59
70781;BME280;59514;48.810;2.134;2022-08-24T16:23:27;100136.97;;;32.33;31.37
70781;BME280;59514;48.810;2.134;2022-08-24T16:28:46;100141.34;;;32.34;32.28
70781;BME280;59514;48.810;2.134;2022-08-24T16:31:46;100140.56;;;32.33;30.80
70781;BME280;59514;48.810;2.134;2022-08-24T16:34:22;100127.81;;;32.32;31.23
70781;BME280;59514;48.810;2.134;2022-08-24T16:36:51;100141.34;;;32.34;31.63
70781;BME280;59514;48.810;2.134;2022-08-24T16:39:17;100136.50;;;32.27;31.06
70781;BME280;59514;48.810;2.134;2022-08-24T16:41:42;100128.47;;;32.22;31.40
70781;BME280;59514;48.810;2.134;2022-08-24T16:44:08;100127.75;;;32.25;31.32
70781;BME280;59514;48.810;2.134;2022-08-24T16:46:35;100129.25;;;32.19;31.74
70781;BME280;59514;48.810;2.134;2022-08-24T16:49:00;100128.69;;;32.36;31.31